createdAt,value
2017-07-19T05:31:08.810Z,72.01
2017-07-19T05:31:34.275Z,72.39
2017-07-19T05:31:59.753Z,72.14
2017-07-19T05:32:25.238Z,72.3
2017-07-19T05:32:50.723Z,72.11
2017-07-19T05:33:16.199Z,72.14
2017-07-19T05:33:41.668Z,71.81
2017-07-19T05:34:07.162Z,72.01
2017-07-19T05:34:32.636Z,72.11
2017-07-19T05:34:58.117Z,72.05
2017-07-19T05:35:23.600Z,72.14
2017-07-19T05:35:49.074Z,70.98
2017-07-19T05:36:14.522Z,71.28
2017-07-19T05:36:40.018Z,71.56
2017-07-19T05:37:05.498Z,71.56
2017-07-19T05:37:30.960Z,70.89
2017-07-19T05:37:56.409Z,71.66
2017-07-19T05:38:21.882Z,71.37
2017-07-19T05:38:47.364Z,70.5
2017-07-19T05:39:12.831Z,70.7
2017-07-19T05:39:38.308Z,70.7
2017-07-19T05:40:03.778Z,70.5
2017-07-19T05:40:29.247Z,70.5
2017-07-19T05:40:54.723Z,70.5
2017-07-19T05:41:20.214Z,70.6
2017-07-19T05:41:45.664Z,71.08
2017-07-19T05:42:11.167Z,70.7
2017-07-19T05:42:36.619Z,70.89
2017-07-19T05:43:02.115Z,70.79
2017-07-19T05:43:27.604Z,70.92
2017-07-19T05:43:53.083Z,70.41
2017-07-19T05:44:18.573Z,70.35
2017-07-19T05:44:44.063Z,70.15
2017-07-19T05:45:09.540Z,69.67
2017-07-19T05:45:35.034Z,69.67
2017-07-19T05:46:00.511Z,69.96
2017-07-19T05:46:25.965Z,69.87
2017-07-19T05:46:51.440Z,70.06
2017-07-19T05:47:16.891Z,70.15
2017-07-19T05:47:42.362Z,70.06
2017-07-19T05:48:07.830Z,70.73
2017-07-19T05:48:33.291Z,70.44
2017-07-19T05:48:58.779Z,70.15
2017-07-19T05:49:24.282Z,70.15
2017-07-19T05:49:49.757Z,70.06
2017-07-19T05:50:15.253Z,70.06
2017-07-19T05:50:40.732Z,70.06
2017-07-19T05:51:06.205Z,69.87
2017-07-19T05:51:31.723Z,70.06
2017-07-19T05:51:57.194Z,69.77
2017-07-19T05:52:22.679Z,70.06
2017-07-19T05:52:48.159Z,69.38
2017-07-19T05:53:13.642Z,69.67
2017-07-19T05:53:39.103Z,69.87
2017-07-19T05:54:04.581Z,69.19
2017-07-19T05:54:30.077Z,69.19
2017-07-19T05:54:55.567Z,69.29
2017-07-19T05:55:21.018Z,69.19
2017-07-19T05:55:46.503Z,69.38
2017-07-19T05:56:12.022Z,69.96
2017-07-19T05:56:37.478Z,69.67
2017-07-19T05:57:02.962Z,69.29
2017-07-19T05:57:28.449Z,69.51
2017-07-19T05:57:53.935Z,69.38
2017-07-19T05:58:19.469Z,69.67
2017-07-19T05:58:44.949Z,69.38
2017-07-19T05:59:10.423Z,69.71
2017-07-19T05:59:35.911Z,70
2017-07-19T06:00:01.394Z,69.61
2017-07-19T06:00:26.864Z,69.9
2017-07-19T06:00:52.335Z,69.8
2017-07-19T06:01:17.850Z,69.51
2017-07-19T06:01:43.320Z,69.51
2017-07-19T06:02:08.792Z,69.42
2017-07-19T06:02:34.275Z,69.42
2017-07-19T06:02:59.777Z,69.32
2017-07-19T06:03:25.269Z,69.61
2017-07-19T06:03:50.734Z,69.8
2017-07-19T06:04:16.233Z,69.42
2017-07-19T06:04:41.744Z,68.93
2017-07-19T06:05:07.216Z,68.45
2017-07-19T06:05:32.690Z,68.74
2017-07-19T06:05:58.168Z,68.45
2017-07-19T06:06:23.630Z,68.55
2017-07-19T06:06:49.130Z,68.74
2017-07-19T06:07:14.609Z,68.93
2017-07-19T06:07:40.096Z,68.55
2017-07-19T06:08:05.582Z,68.65
2017-07-19T06:08:31.056Z,68.93
2017-07-19T06:08:56.519Z,69.03
2017-07-19T06:09:21.994Z,68.55
2017-07-19T06:09:47.440Z,68.84
2017-07-19T06:10:12.922Z,68.74
2017-07-19T06:10:38.401Z,68.16
2017-07-19T06:11:03.888Z,69.07
2017-07-19T06:11:29.352Z,68.68
2017-07-19T06:11:54.808Z,68.77
2017-07-19T06:12:20.302Z,68.77
2017-07-19T06:12:45.772Z,68.87
2017-07-19T06:13:11.274Z,68.49
2017-07-19T06:13:36.761Z,67.71
2017-07-19T06:14:02.262Z,67.91
2017-07-19T06:14:27.747Z,67.91
2017-07-19T06:14:53.199Z,68.01
2017-07-19T06:15:18.665Z,68.19
2017-07-19T06:15:44.131Z,67.81
2017-07-19T06:16:09.594Z,67.81
2017-07-19T06:16:35.072Z,67.81
2017-07-19T06:17:00.544Z,67.52
2017-07-19T06:17:25.999Z,67.62
2017-07-19T06:17:51.490Z,67.62
2017-07-19T06:18:16.942Z,67.52
2017-07-19T06:18:42.454Z,67.62
2017-07-19T06:19:07.938Z,68.01
2017-07-19T06:19:33.464Z,67.91
2017-07-19T06:19:58.971Z,68.19
2017-07-19T06:20:24.454Z,68.01
2017-07-19T06:20:49.935Z,68.1
2017-07-19T06:21:15.404Z,67.81
2017-07-19T06:21:40.862Z,67.62
2017-07-19T06:22:06.321Z,67.33
2017-07-19T06:22:31.795Z,67.04
2017-07-19T06:22:57.300Z,67.14
2017-07-19T06:23:22.780Z,66.85
2017-07-19T06:23:48.244Z,67.23
2017-07-19T06:24:13.720Z,66.75
2017-07-19T06:24:39.195Z,66.94
2017-07-19T06:25:04.645Z,66.94
2017-07-19T06:25:30.131Z,66.94
2017-07-19T06:25:55.628Z,67.52
2017-07-19T06:26:21.120Z,67.62
2017-07-19T06:26:46.604Z,66.94
2017-07-19T06:27:12.091Z,67.04
2017-07-19T06:27:37.565Z,67.17
2017-07-19T06:28:03.034Z,66.66
2017-07-19T06:28:28.504Z,66.88
2017-07-19T06:28:53.983Z,67.23
2017-07-19T06:29:19.444Z,66.78
2017-07-19T06:29:44.927Z,66.85
2017-07-19T06:30:10.375Z,66.85
2017-07-19T06:30:35.856Z,66.85
2017-07-19T06:31:01.331Z,67.23
2017-07-19T06:31:26.804Z,67.04
2017-07-19T06:31:52.247Z,67.27
2017-07-19T06:32:17.708Z,67.43
2017-07-19T06:32:43.184Z,67.75
2017-07-19T06:33:08.700Z,67.46
2017-07-19T06:33:34.141Z,66.88
2017-07-19T06:33:59.643Z,67.36
2017-07-19T06:34:25.120Z,67.65
2017-07-19T06:34:50.566Z,67.17
2017-07-19T06:35:16.070Z,67.07
2017-07-19T06:35:41.526Z,67.07
2017-07-19T06:36:07.029Z,67.17
2017-07-19T06:36:32.494Z,67.17
2017-07-19T06:36:57.936Z,67.17
2017-07-19T06:37:23.406Z,66.69
2017-07-19T06:37:48.893Z,66.69
2017-07-19T06:38:14.394Z,66.4
2017-07-19T06:38:39.881Z,66.63
2017-07-19T06:39:05.401Z,66.11
2017-07-19T06:39:30.823Z,66.2
2017-07-19T06:39:56.296Z,66.4
2017-07-19T06:40:21.800Z,66.33
2017-07-19T06:40:47.295Z,66.33
2017-07-19T06:41:12.774Z,66.11
2017-07-19T06:41:38.281Z,66.43
2017-07-19T06:42:03.776Z,66.14
2017-07-19T06:42:29.237Z,65.56
2017-07-19T06:42:54.703Z,65.95
2017-07-19T06:43:20.200Z,66.05
2017-07-19T06:43:45.667Z,65.95
2017-07-19T06:44:11.163Z,65.95
2017-07-19T06:44:36.647Z,65.95
2017-07-19T06:45:02.102Z,66.14
2017-07-19T06:45:27.574Z,66.24
2017-07-19T06:45:53.057Z,66.14
2017-07-19T06:46:18.539Z,65.47
2017-07-19T06:46:44.018Z,65.08
2017-07-19T06:47:09.486Z,65.47
2017-07-19T06:47:34.965Z,65.56
2017-07-19T06:48:00.440Z,65.56
2017-07-19T06:48:25.910Z,65.56
2017-07-19T06:48:51.364Z,65.27
2017-07-19T06:49:16.854Z,65.56
2017-07-19T06:49:42.334Z,65.47
2017-07-19T06:50:07.826Z,65.27
2017-07-19T06:50:33.288Z,65.56
2017-07-19T06:50:58.787Z,65.56
2017-07-19T06:51:24.292Z,65.47
2017-07-19T06:51:49.773Z,65.56
2017-07-19T06:52:15.239Z,65.75
2017-07-19T06:52:40.703Z,65.5
2017-07-19T06:53:06.208Z,65.27
2017-07-19T06:53:31.686Z,65.3
2017-07-19T06:53:57.183Z,65.2
2017-07-19T06:54:22.655Z,65.59
2017-07-19T06:54:48.167Z,65.3
2017-07-19T06:55:13.643Z,65.98
2017-07-19T06:55:39.136Z,65.4
2017-07-19T06:56:04.583Z,65.01
2017-07-19T06:56:30.031Z,64.92
2017-07-19T06:56:55.502Z,64.82
2017-07-19T06:57:20.977Z,64.92
2017-07-19T06:57:46.443Z,65.01
2017-07-19T06:58:11.892Z,65.2
2017-07-19T06:58:37.356Z,64.92
2017-07-19T06:59:02.808Z,64.72
2017-07-19T06:59:28.280Z,64.37
2017-07-19T06:59:53.741Z,64.27
2017-07-19T07:00:19.221Z,64.47
2017-07-19T07:00:44.727Z,63.89
2017-07-19T07:01:10.212Z,63.89
2017-07-19T07:01:35.667Z,63.89
2017-07-19T07:02:01.161Z,63.98
2017-07-19T07:02:26.614Z,64.08
2017-07-19T07:02:52.109Z,64.27
2017-07-19T07:03:17.626Z,64.18
2017-07-19T07:03:43.079Z,63.98
2017-07-19T07:04:08.574Z,64.18
2017-07-19T07:04:34.040Z,63.98
2017-07-19T07:04:59.528Z,63.69
2017-07-19T07:05:25.010Z,63.5
2017-07-19T07:05:50.520Z,63.53
2017-07-19T07:06:15.974Z,63.4
2017-07-19T07:06:41.450Z,63.21
2017-07-19T07:07:06.921Z,63.02
2017-07-19T07:07:32.425Z,63.21
2017-07-19T07:07:57.890Z,63.31
2017-07-19T07:08:23.368Z,63.6
2017-07-19T07:08:48.804Z,62.85
2017-07-19T07:09:14.286Z,63.05
2017-07-19T07:09:39.752Z,62.56
2017-07-19T07:10:05.249Z,63.05
2017-07-19T07:10:30.723Z,62.56
2017-07-19T07:10:56.196Z,63.43
2017-07-19T07:11:21.694Z,63.53
2017-07-19T07:11:47.182Z,63.24
2017-07-19T07:12:12.670Z,63.34
2017-07-19T07:12:38.149Z,63.34
2017-07-19T07:13:03.624Z,63.43
2017-07-19T07:13:29.101Z,63.43
2017-07-19T07:13:54.573Z,63.73
2017-07-19T07:14:20.039Z,62.76
2017-07-19T07:14:45.525Z,62.76
2017-07-19T07:15:11.043Z,62.47
2017-07-19T07:15:36.491Z,62.76
2017-07-19T07:16:01.960Z,62.08
2017-07-19T07:16:27.455Z,61.98
2017-07-19T07:16:52.929Z,61.6
2017-07-19T07:17:18.384Z,62.18
2017-07-19T07:17:43.890Z,61.79
2017-07-19T07:18:09.375Z,62.47
2017-07-19T07:18:34.898Z,62.66
2017-07-19T07:19:00.385Z,62.37
2017-07-19T07:19:25.894Z,62.37
2017-07-19T07:19:51.386Z,62.66
2017-07-19T07:20:16.890Z,62.5
2017-07-19T07:20:42.374Z,63.27
2017-07-19T07:21:07.877Z,63.08
2017-07-19T07:21:33.358Z,63.08
2017-07-19T07:21:58.853Z,62.88
2017-07-19T07:22:24.314Z,62.59
2017-07-19T07:22:49.786Z,62.21
2017-07-19T07:23:15.260Z,61.92
2017-07-19T07:23:40.792Z,61.92
2017-07-19T07:24:06.248Z,62.11
2017-07-19T07:24:31.743Z,62.4
2017-07-19T07:24:57.201Z,62.11
2017-07-19T07:25:22.670Z,62.3
2017-07-19T07:25:48.170Z,61.92
2017-07-19T07:26:13.624Z,62.01
2017-07-19T07:26:39.082Z,62.3
2017-07-19T07:27:04.573Z,61.92
2017-07-19T07:27:30.041Z,61.92
2017-07-19T07:27:55.510Z,61.92
2017-07-19T07:28:20.981Z,62.11
2017-07-19T07:28:46.428Z,62.4
2017-07-19T07:29:11.920Z,62.43
2017-07-19T07:29:37.429Z,62.4
2017-07-19T07:30:02.875Z,62.21
2017-07-19T07:30:28.352Z,62.3
2017-07-19T07:30:53.835Z,62.14
2017-07-19T07:31:19.308Z,62.04
2017-07-19T07:31:44.756Z,61.76
2017-07-19T07:32:10.200Z,61.36
2017-07-19T07:32:35.665Z,60.98
2017-07-19T07:33:01.137Z,61.36
2017-07-19T07:33:26.605Z,62.04
2017-07-19T07:33:52.066Z,61.27
2017-07-19T07:34:17.520Z,61.85
2017-07-19T07:34:43.000Z,61.66
2017-07-19T07:35:08.453Z,61.56
2017-07-19T07:35:33.910Z,61.95
2017-07-19T07:35:59.411Z,61.56
2017-07-19T07:36:24.875Z,61.27
2017-07-19T07:36:50.358Z,61.56
2017-07-19T07:37:15.853Z,61.36
2017-07-19T07:37:41.326Z,61.88
2017-07-19T07:38:06.789Z,61.46
2017-07-19T07:38:32.262Z,60.88
2017-07-19T07:38:57.697Z,61.01
2017-07-19T07:39:23.159Z,61.21
2017-07-19T07:39:48.636Z,60.98
2017-07-19T07:40:14.104Z,61.59
2017-07-19T07:40:39.572Z,61.59
2017-07-19T07:41:05.047Z,61.88
2017-07-19T07:41:30.518Z,61.69
2017-07-19T07:41:55.967Z,61.88
2017-07-19T07:42:21.449Z,61.11
2017-07-19T07:42:46.911Z,61.4
2017-07-19T07:43:12.386Z,61.4
2017-07-19T07:43:37.853Z,61.49
2017-07-19T07:44:03.361Z,61.21
2017-07-19T07:44:28.835Z,60.14
2017-07-19T07:44:54.318Z,60.04
2017-07-19T07:45:19.759Z,60.24
2017-07-19T07:45:45.240Z,60.04
2017-07-19T07:46:10.701Z,60.72
2017-07-19T07:46:36.176Z,61.11
2017-07-19T07:47:01.642Z,61.11
2017-07-19T07:47:27.120Z,61.3
2017-07-19T07:47:52.582Z,61.01
2017-07-19T07:48:18.075Z,61.01
2017-07-19T07:48:43.546Z,61.11
2017-07-19T07:49:09.018Z,61.01
2017-07-19T07:49:34.501Z,61.21
2017-07-19T07:49:59.971Z,61.11
2017-07-19T07:50:25.484Z,60.82
2017-07-19T07:50:50.949Z,61.01
2017-07-19T07:51:16.434Z,61.21
2017-07-19T07:51:41.901Z,59.84
2017-07-19T07:52:07.362Z,60.33
2017-07-19T07:52:32.869Z,60.24
2017-07-19T07:52:58.354Z,60.07
2017-07-19T07:53:23.830Z,60.65
2017-07-19T07:53:49.311Z,60.65
2017-07-19T07:54:14.784Z,60.07
2017-07-19T07:54:40.238Z,60.27
2017-07-19T07:55:05.698Z,60.36
2017-07-19T07:55:31.149Z,60.27
2017-07-19T07:55:56.662Z,60.17
2017-07-19T07:56:22.160Z,60.27
2017-07-19T07:56:47.639Z,60.55
2017-07-19T07:57:13.106Z,60.75
2017-07-19T07:57:38.585Z,60.65
2017-07-19T07:58:04.062Z,61.04
2017-07-19T07:58:29.554Z,60.65
2017-07-19T07:58:55.033Z,60.94
2017-07-19T07:59:20.499Z,60.27
2017-07-19T07:59:45.995Z,59.49
2017-07-19T08:00:11.454Z,59.3
2017-07-19T08:00:36.937Z,59.39
2017-07-19T08:01:02.434Z,60.07
2017-07-19T08:01:27.889Z,59.88
2017-07-19T08:01:53.373Z,59.78
2017-07-19T08:02:18.859Z,59.69
2017-07-19T08:02:44.371Z,59.78
2017-07-19T08:03:09.855Z,59.97
2017-07-19T08:03:35.321Z,60.07
2017-07-19T08:04:00.777Z,60.36
2017-07-19T08:04:26.272Z,60.27
2017-07-19T08:04:51.743Z,60.36
2017-07-19T08:05:17.181Z,59.3
2017-07-19T08:05:42.654Z,59.1
2017-07-19T08:06:08.138Z,59.59
2017-07-19T08:06:33.599Z,59.3
2017-07-19T08:06:59.054Z,59.59
2017-07-19T08:07:24.515Z,59.3
2017-07-19T08:07:49.998Z,59.2
2017-07-19T08:08:15.472Z,59
2017-07-19T08:08:40.930Z,59.1
2017-07-19T08:09:06.380Z,58.72
2017-07-19T08:09:31.840Z,58.62
2017-07-19T08:09:57.305Z,58.62
2017-07-19T08:10:22.764Z,58.52
2017-07-19T08:10:48.241Z,59.1
2017-07-19T08:11:13.739Z,59.1
2017-07-19T08:11:39.231Z,59.49
2017-07-19T08:12:04.708Z,59.39
2017-07-19T08:12:30.203Z,59.59
2017-07-19T08:12:55.655Z,59.3
2017-07-19T08:13:21.152Z,59.97
2017-07-19T08:13:46.605Z,59.49
2017-07-19T08:14:12.100Z,58.74
2017-07-19T08:14:37.585Z,58.36
2017-07-19T08:15:03.048Z,58.55
2017-07-19T08:15:28.535Z,58.36
2017-07-19T08:15:53.996Z,58.36
2017-07-19T08:16:19.449Z,58.36
2017-07-19T08:16:44.928Z,58.55
2017-07-19T08:17:10.399Z,58.36
2017-07-19T08:17:35.899Z,58.14
2017-07-19T08:18:01.369Z,58.65
2017-07-19T08:18:26.845Z,58.74
2017-07-19T08:18:52.320Z,58.74
2017-07-19T08:19:45.221Z,58.16
2017-07-19T08:20:10.695Z,58.55
2017-07-19T08:20:36.159Z,58.74
2017-07-19T08:21:01.648Z,58.45
2017-07-19T08:21:27.144Z,58.74
2017-07-19T08:21:52.637Z,58.16
2017-07-19T08:22:18.081Z,58.94
2017-07-19T08:22:43.581Z,58.74
2017-07-19T08:23:09.065Z,58.94
2017-07-19T08:23:34.530Z,59.23
2017-07-19T08:24:00.024Z,59.03
2017-07-19T08:24:25.506Z,59.03
2017-07-19T08:24:50.973Z,59.03
2017-07-19T08:25:16.440Z,59.03
2017-07-19T08:25:41.900Z,58.94
2017-07-19T08:26:07.378Z,59.33
2017-07-19T08:26:32.824Z,58.55
2017-07-19T08:26:58.311Z,58.26
2017-07-19T08:27:23.774Z,58.09
2017-07-19T08:27:49.225Z,58
2017-07-19T08:28:14.728Z,57.7
2017-07-19T08:28:40.182Z,57.9
2017-07-19T08:29:05.609Z,58.09
2017-07-19T08:29:31.129Z,57.8
2017-07-19T08:29:56.617Z,57.7
2017-07-19T08:30:22.202Z,57.8
2017-07-19T08:30:47.681Z,57.7
2017-07-19T08:31:13.148Z,57.83
2017-07-19T08:31:38.626Z,57.7
2017-07-19T08:32:04.101Z,57.64
2017-07-19T08:32:29.572Z,57.9
2017-07-19T08:32:55.034Z,57.03
2017-07-19T08:33:20.497Z,57.15
2017-07-19T08:33:45.977Z,57.12
2017-07-19T08:34:11.423Z,57.54
2017-07-19T08:34:36.904Z,57.25
2017-07-19T08:35:02.358Z,56.83
2017-07-19T08:35:27.817Z,56.74
2017-07-19T08:35:53.291Z,56.64
2017-07-19T08:36:18.745Z,56.83
2017-07-19T08:36:44.210Z,57.22
2017-07-19T08:37:09.681Z,57.25
2017-07-19T08:37:35.159Z,57.25
2017-07-19T08:38:00.636Z,57.03
2017-07-19T08:38:26.132Z,57.12
2017-07-19T08:38:51.608Z,57.22
2017-07-19T08:39:17.091Z,57.22
2017-07-19T08:39:42.574Z,57.06
2017-07-19T08:40:08.059Z,57.22
2017-07-19T08:40:33.542Z,57.32
2017-07-19T08:40:59.052Z,56.93
2017-07-19T08:41:24.529Z,57.22
2017-07-19T08:41:50.011Z,57.61
2017-07-19T08:42:15.496Z,57.51
2017-07-19T08:42:40.993Z,57.9
2017-07-19T08:43:06.477Z,57.8
2017-07-19T08:43:31.979Z,57.8
2017-07-19T08:43:57.477Z,57.06
2017-07-19T08:44:22.962Z,57.32
2017-07-19T08:44:48.432Z,57.12
2017-07-19T08:45:13.902Z,57.22
2017-07-19T08:45:39.386Z,57.15
2017-07-19T08:46:04.858Z,57.25
2017-07-19T08:46:30.347Z,57.73
2017-07-19T08:46:55.826Z,57.12
2017-07-19T08:47:21.297Z,57.25
2017-07-19T08:47:46.782Z,57.64
2017-07-19T08:48:12.237Z,57.61
2017-07-19T08:48:37.718Z,57.9
2017-07-19T08:49:03.190Z,57.61
2017-07-19T08:49:28.684Z,58.19
2017-07-19T08:49:54.159Z,58.58
2017-07-19T08:50:19.614Z,58.39
2017-07-19T08:50:45.106Z,58.19
2017-07-19T08:51:10.587Z,58.09
2017-07-19T08:51:36.052Z,58.87
2017-07-19T08:52:01.546Z,58.58
2017-07-19T08:52:27.026Z,58.77
2017-07-19T08:52:52.479Z,58.67
2017-07-19T08:53:17.948Z,58.67
2017-07-19T08:53:43.428Z,58.39
2017-07-19T08:54:08.877Z,58.29
2017-07-19T08:54:34.362Z,58.29
2017-07-19T08:54:59.833Z,58.48
2017-07-19T08:55:25.283Z,58.22
2017-07-19T08:55:50.729Z,58.19
2017-07-19T08:56:16.218Z,58.97
2017-07-19T08:56:41.700Z,58.67
2017-07-19T08:57:07.156Z,58.67
2017-07-19T08:57:32.629Z,58.67
2017-07-19T08:57:58.235Z,58.7
2017-07-19T08:58:23.704Z,58.9
2017-07-19T08:58:49.171Z,58.31
2017-07-19T08:59:14.644Z,58.22
2017-07-19T08:59:40.134Z,58.8
2017-07-19T09:00:05.624Z,58.61
2017-07-19T09:00:31.081Z,58.22
2017-07-19T09:00:56.535Z,57.64
2017-07-19T09:01:22.026Z,57.64
2017-07-19T09:01:47.528Z,57.64
2017-07-19T09:02:12.991Z,58.61
2017-07-19T09:02:38.453Z,58.31
2017-07-19T09:03:03.943Z,58.31
2017-07-19T09:03:29.446Z,58.41
2017-07-19T09:03:54.925Z,58.41
2017-07-19T09:04:20.381Z,58.7
2017-07-19T09:04:45.843Z,58.51
2017-07-19T09:05:11.311Z,58.9
2017-07-19T09:05:36.806Z,58.51
2017-07-19T09:06:02.280Z,58.8
2017-07-19T09:06:27.731Z,58.8
2017-07-19T09:06:53.176Z,58.41
2017-07-19T09:07:18.631Z,58.41
2017-07-19T09:07:44.124Z,58.22
2017-07-19T09:08:09.582Z,57.64
2017-07-19T09:08:35.083Z,57.44
2017-07-19T09:09:00.544Z,57.34
2017-07-19T09:09:26.016Z,57.06
2017-07-19T09:09:51.533Z,57.15
2017-07-19T09:10:17.036Z,57.06
2017-07-19T09:10:42.505Z,57.06
2017-07-19T09:11:07.989Z,57.73
2017-07-19T09:11:33.502Z,57.76
2017-07-19T09:11:59.002Z,57.67
2017-07-19T09:12:24.480Z,57.67
2017-07-19T09:12:49.952Z,57.47
2017-07-19T09:13:15.440Z,57.47
2017-07-19T09:13:40.890Z,56.98
2017-07-19T09:14:06.406Z,57.08
2017-07-19T09:14:31.893Z,57.28
2017-07-19T09:14:57.362Z,57.28
2017-07-19T09:15:22.840Z,57.18
2017-07-19T09:15:48.362Z,57.28
2017-07-19T09:16:13.844Z,57.18
2017-07-19T09:16:39.304Z,57.28
2017-07-19T09:17:04.796Z,57.08
2017-07-19T09:17:30.262Z,56.98
2017-07-19T09:17:55.737Z,56.7
2017-07-19T09:18:21.196Z,57.4
2017-07-19T09:18:46.671Z,56.7
2017-07-19T09:19:12.160Z,57.5
2017-07-19T09:19:37.643Z,56.82
2017-07-19T09:20:03.135Z,56.72
2017-07-19T09:20:28.620Z,56.92
2017-07-19T09:20:54.099Z,56.82
2017-07-19T09:21:19.618Z,56.82
2017-07-19T09:21:45.073Z,56.72
2017-07-19T09:22:10.551Z,56.34
2017-07-19T09:22:36.054Z,56.52
2017-07-19T09:23:01.555Z,56.52
2017-07-19T09:23:26.996Z,56.52
2017-07-19T09:23:52.425Z,57.01
2017-07-19T09:24:17.903Z,57.11
2017-07-19T09:24:43.386Z,57.01
2017-07-19T09:25:08.861Z,57.11
2017-07-19T09:25:34.316Z,56.72
2017-07-19T09:25:59.774Z,56.82
2017-07-19T09:26:25.232Z,56.92
2017-07-19T09:26:50.686Z,57.11
2017-07-19T09:27:16.177Z,56.82
2017-07-19T09:27:41.652Z,56.62
2017-07-19T09:28:07.115Z,56.52
2017-07-19T09:28:32.583Z,56.34
2017-07-19T09:28:58.043Z,56.52
2017-07-19T09:29:23.516Z,56.43
2017-07-19T09:29:49.005Z,56.34
2017-07-19T09:30:14.491Z,56.72
2017-07-19T09:30:40.050Z,56.82
2017-07-19T09:31:05.546Z,56.92
2017-07-19T09:31:31.032Z,56.52
2017-07-19T09:31:56.522Z,56.92
2017-07-19T09:32:22.010Z,56.82
2017-07-19T09:32:47.491Z,56.82
2017-07-19T09:33:12.963Z,56.72
2017-07-19T09:33:38.464Z,57.01
2017-07-19T09:34:03.948Z,57.11
2017-07-19T09:34:29.421Z,56.82
2017-07-19T09:34:54.871Z,56.72
2017-07-19T09:35:20.366Z,56.72
2017-07-19T09:35:45.808Z,56.72
2017-07-19T09:36:11.303Z,56.72
2017-07-19T09:36:36.786Z,56.36
2017-07-19T09:37:02.260Z,56.34
2017-07-19T09:37:27.750Z,56.26
2017-07-19T09:37:53.273Z,56.65
2017-07-19T09:38:18.756Z,56.56
2017-07-19T09:38:44.258Z,56.75
2017-07-19T09:39:09.733Z,56.26
2017-07-19T09:39:35.193Z,56.36
2017-07-19T09:40:00.670Z,56.36
2017-07-19T09:40:26.222Z,56.26
2017-07-19T09:40:51.686Z,55.98
2017-07-19T09:41:17.158Z,55.39
2017-07-19T09:41:42.624Z,55.19
2017-07-19T09:42:08.092Z,55.49
2017-07-19T09:42:33.536Z,56.07
2017-07-19T09:42:59.002Z,55.1
2017-07-19T09:43:24.478Z,55.22
2017-07-19T09:43:49.919Z,55.41
2017-07-19T09:44:15.395Z,54.64
2017-07-19T09:44:40.885Z,54.13
2017-07-19T09:45:06.356Z,55.03
2017-07-19T09:45:31.823Z,55.03
2017-07-19T09:45:57.333Z,55.29
2017-07-19T09:46:22.836Z,55.22
2017-07-19T09:46:48.324Z,55.22
2017-07-19T09:47:13.811Z,55.49
2017-07-19T09:47:39.350Z,55.98
2017-07-19T09:48:04.852Z,56.2
2017-07-19T09:48:30.333Z,56.26
2017-07-19T09:48:55.877Z,56.56
2017-07-19T09:49:21.379Z,56.29
2017-07-19T09:49:46.890Z,56.1
2017-07-19T09:50:12.366Z,56.1
2017-07-19T09:50:37.873Z,56.2
2017-07-19T09:51:03.338Z,55.13
2017-07-19T09:51:28.830Z,55.22
2017-07-19T09:51:54.310Z,54.35
2017-07-19T09:52:19.818Z,54.25
2017-07-19T09:52:45.267Z,54.35
2017-07-19T09:53:10.814Z,54.44
2017-07-19T09:53:36.307Z,54.54
2017-07-19T09:54:01.757Z,54.44
2017-07-19T09:54:27.230Z,54.44
2017-07-19T09:54:52.704Z,54.15
2017-07-19T09:55:18.193Z,54.44
2017-07-19T09:55:43.693Z,54.35
2017-07-19T09:56:09.172Z,54.15
2017-07-19T09:56:34.637Z,54.64
2017-07-19T09:57:00.128Z,54.35
2017-07-19T09:57:25.610Z,54.93
2017-07-19T09:57:51.088Z,55.22
2017-07-19T09:58:16.583Z,55.41
2017-07-19T09:58:42.075Z,55.13
2017-07-19T09:59:07.552Z,55.22
2017-07-19T09:59:33.058Z,55.03
2017-07-19T09:59:58.519Z,55.05
2017-07-19T10:00:24.019Z,55.22
2017-07-19T10:00:49.477Z,55.44
2017-07-19T10:01:14.971Z,55.25
2017-07-19T10:01:40.470Z,55.44
2017-07-19T10:02:05.972Z,55.64
2017-07-19T10:02:31.441Z,55.64
2017-07-19T10:02:56.894Z,55.25
2017-07-19T10:03:22.455Z,55.05
2017-07-19T10:03:47.898Z,54.96
2017-07-19T10:04:13.374Z,54.47
2017-07-19T10:04:38.833Z,53.99
2017-07-19T10:05:04.334Z,53.91
2017-07-19T10:05:29.827Z,54.08
2017-07-19T10:05:55.353Z,53.42
2017-07-19T10:06:20.806Z,53.89
2017-07-19T10:06:46.310Z,53.91
2017-07-19T10:07:11.809Z,54.18
2017-07-19T10:07:37.327Z,53.89
2017-07-19T10:08:02.834Z,53.04
2017-07-19T10:08:28.330Z,52.75
2017-07-19T10:08:53.807Z,53.2
2017-07-19T10:09:19.282Z,53.69
2017-07-19T10:09:44.754Z,53.2
2017-07-19T10:10:10.252Z,53.59
2017-07-19T10:10:35.699Z,53.59
2017-07-19T10:11:01.154Z,53.5
2017-07-19T10:11:26.621Z,54.18
2017-07-19T10:11:52.086Z,53.3
2017-07-19T10:12:17.567Z,53.3
2017-07-19T10:12:43.015Z,53.5
2017-07-19T10:13:08.486Z,53.59
2017-07-19T10:13:33.993Z,53.3
2017-07-19T10:13:59.429Z,53.5
2017-07-19T10:14:24.965Z,53.4
2017-07-19T10:14:50.451Z,53.69
2017-07-19T10:15:15.967Z,54.18
2017-07-19T10:15:41.443Z,53.79
2017-07-19T10:16:06.973Z,53.91
2017-07-19T10:16:32.428Z,53.2
2017-07-19T10:16:57.922Z,53.3
2017-07-19T10:17:23.433Z,53.2
2017-07-19T10:17:48.892Z,53.42
2017-07-19T10:18:14.354Z,53.42
2017-07-19T10:18:39.834Z,52.92
2017-07-19T10:19:05.299Z,53.04
2017-07-19T10:19:30.761Z,53.23
2017-07-19T10:19:56.262Z,52.84
2017-07-19T10:20:21.738Z,53.23
2017-07-19T10:20:47.212Z,53.52
2017-07-19T10:21:12.684Z,52.65
2017-07-19T10:21:38.168Z,52.26
2017-07-19T10:22:03.636Z,52.33
2017-07-19T10:22:29.134Z,52.94
2017-07-19T10:22:54.602Z,52.84
2017-07-19T10:23:20.072Z,52.84
2017-07-19T10:23:45.680Z,52.84
2017-07-19T10:24:11.113Z,53.72
2017-07-19T10:24:36.622Z,53.33
2017-07-19T10:25:02.089Z,53.62
2017-07-19T10:25:27.538Z,53.72
2017-07-19T10:25:53.026Z,53.52
2017-07-19T10:26:18.502Z,53.81
2017-07-19T10:26:43.995Z,54.01
2017-07-19T10:27:09.475Z,54.01
2017-07-19T10:27:34.973Z,53.91
2017-07-19T10:28:00.438Z,54.21
2017-07-19T10:28:25.918Z,54.6
2017-07-19T10:28:51.390Z,54.11
2017-07-19T10:29:16.889Z,54.11
2017-07-19T10:29:42.384Z,53.72
2017-07-19T10:30:07.852Z,54.13
2017-07-19T10:30:33.332Z,54.03
2017-07-19T10:30:58.806Z,53.85
2017-07-19T10:31:24.281Z,53.75
2017-07-19T10:31:49.757Z,53.36
2017-07-19T10:32:15.266Z,52.48
2017-07-19T10:32:40.740Z,51.99
2017-07-19T10:33:06.239Z,51.8
2017-07-19T10:33:31.718Z,51.99
2017-07-19T10:33:57.195Z,52.28
2017-07-19T10:34:22.677Z,52.09
2017-07-19T10:34:48.158Z,52.09
2017-07-19T10:35:13.637Z,51.7
2017-07-19T10:35:39.121Z,51.51
2017-07-19T10:36:04.617Z,51.7
2017-07-19T10:36:30.085Z,52.38
2017-07-19T10:36:55.564Z,52.28
2017-07-19T10:37:21.046Z,52.38
2017-07-19T10:37:46.525Z,52.38
2017-07-19T10:38:12.010Z,51.8
2017-07-19T10:38:37.491Z,52.19
2017-07-19T10:39:02.959Z,51.99
2017-07-19T10:39:28.433Z,52.09
2017-07-19T10:39:53.901Z,52.28
2017-07-19T10:40:19.389Z,52.09
2017-07-19T10:40:44.855Z,52.58
2017-07-19T10:41:10.371Z,52.48
2017-07-19T10:41:35.846Z,52.28
2017-07-19T10:42:01.321Z,52.67
2017-07-19T10:42:26.787Z,53.36
2017-07-19T10:42:52.264Z,53.36
2017-07-19T10:43:17.719Z,53.55
2017-07-19T10:43:43.206Z,53.55
2017-07-19T10:44:08.694Z,53.36
2017-07-19T10:44:34.160Z,53.06
2017-07-19T10:44:59.649Z,53.26
2017-07-19T10:45:25.121Z,53.45
2017-07-19T10:46:33.858Z,52.8
2017-07-19T10:46:59.323Z,52.8
2017-07-19T10:47:24.810Z,52.99
2017-07-19T10:47:50.285Z,52.22
2017-07-19T10:48:15.769Z,52.22
2017-07-19T10:48:41.249Z,52.31
2017-07-19T10:49:06.727Z,51.92
2017-07-19T10:49:32.197Z,52.12
2017-07-19T10:49:57.697Z,52.12
2017-07-19T10:50:23.184Z,52.7
2017-07-19T10:50:48.648Z,52.22
2017-07-19T10:51:14.132Z,52.5
2017-07-19T10:51:39.600Z,52.7
2017-07-19T10:52:05.078Z,52.31
2017-07-19T10:52:30.544Z,52.5
2017-07-19T10:52:56.037Z,52.02
2017-07-19T10:53:21.513Z,51.53
2017-07-19T10:53:47.025Z,51.63
2017-07-19T10:54:12.517Z,51.56
2017-07-19T10:54:37.984Z,51.34
2017-07-19T10:55:03.464Z,51.53
2017-07-19T10:55:28.964Z,52.31
2017-07-19T10:55:54.463Z,52.12
2017-07-19T10:56:19.920Z,52.5
2017-07-19T10:56:45.395Z,52.6
2017-07-19T10:57:10.871Z,52.31
2017-07-19T10:57:36.339Z,52.5
2017-07-19T10:58:01.820Z,52.44
2017-07-19T10:58:27.291Z,52.44
2017-07-19T10:58:52.738Z,52.04
2017-07-19T10:59:18.209Z,52.04
2017-07-19T10:59:43.686Z,52.04
2017-07-19T11:00:09.148Z,51.46
2017-07-19T11:00:34.647Z,51.85
2017-07-19T11:01:00.116Z,51.85
2017-07-19T11:01:25.630Z,51.65
2017-07-19T11:01:51.120Z,51.36